createdAt,value
2019-03-22T00:02:28.449Z,4.90
2019-03-22T00:12:28.402Z,4.81
2019-03-22T00:22:28.524Z,4.57
2019-03-22T00:32:28.936Z,4.73
2019-03-22T00:42:28.400Z,4.65
2019-03-22T00:52:28.395Z,4.41
2019-03-22T01:02:28.737Z,4.19
2019-03-22T01:12:28.442Z,4.30
2019-03-22T01:22:28.602Z,4.24
2019-03-22T01:32:28.389Z,4.02
2019-03-22T01:42:28.356Z,4.06
2019-03-22T01:52:28.416Z,3.80
2019-03-22T02:02:28.405Z,3.58
2019-03-22T02:12:28.432Z,3.36
2019-03-22T02:22:28.465Z,3.20
2019-03-22T02:32:28.382Z,3.24
2019-03-22T02:42:29.770Z,3.35
2019-03-22T02:52:28.398Z,3.37
2019-03-22T03:02:28.418Z,3.16
2019-03-22T03:12:28.434Z,2.96
2019-03-22T03:22:28.455Z,3.02
2019-03-22T03:32:28.367Z,2.91
2019-03-22T03:42:28.347Z,2.83
2019-03-22T03:52:28.343Z,3.21
2019-03-22T04:02:28.389Z,3.03
2019-03-22T04:12:28.402Z,2.78
2019-03-22T04:22:28.350Z,2.67
2019-03-22T04:32:28.399Z,2.50
2019-03-22T04:42:28.389Z,2.44
2019-03-22T04:52:28.403Z,2.43
2019-03-22T05:02:28.542Z,2.35
2019-03-22T05:12:28.370Z,2.39
2019-03-22T05:22:28.409Z,2.25
2019-03-22T05:32:28.419Z,2.18
2019-03-22T05:42:28.410Z,2.07
2019-03-22T05:52:28.289Z,2.08
2019-03-22T06:02:29.165Z,2.52
2019-03-22T06:12:28.503Z,3.20
2019-03-22T06:22:28.501Z,4.17
2019-03-22T06:32:28.410Z,5.24
2019-03-22T06:42:28.327Z,6.02
2019-03-22T06:52:28.442Z,6.78
2019-03-22T07:02:28.375Z,7.75
2019-03-22T07:12:28.428Z,8.24
2019-03-22T07:22:28.496Z,9.22
2019-03-22T07:32:28.446Z,10.09
2019-03-22T07:42:29.365Z,10.32
2019-03-22T07:52:28.511Z,11.82
2019-03-22T08:02:29.163Z,12.40
2019-03-22T08:22:36.082Z,14.17
2019-03-22T08:32:36.018Z,15.59
2019-03-22T08:42:36.060Z,16.81
2019-03-22T08:52:35.963Z,17.28
2019-03-22T09:02:38.957Z,17.64
2019-03-22T09:12:36.073Z,18.09
2019-03-22T09:22:39.937Z,19.04
2019-03-22T09:32:36.095Z,18.63
2019-03-22T09:42:36.020Z,19.32
2019-03-22T09:52:36.017Z,21.74
2019-03-22T10:02:37.077Z,20.74
2019-03-22T10:12:36.107Z,20.49
2019-03-22T10:22:36.134Z,22.72
2019-03-22T10:32:35.995Z,23.35
2019-03-22T10:42:36.253Z,22.40
2019-03-22T10:52:36.113Z,23.34
2019-03-22T11:02:36.002Z,24.49
2019-03-22T11:12:36.047Z,21.96
2019-03-22T11:22:36.022Z,22.69
2019-03-22T11:32:38.666Z,22.24
2019-03-22T11:42:36.138Z,23.43
2019-03-22T11:52:36.110Z,23.41
2019-03-22T12:02:36.199Z,23.13
2019-03-22T12:12:36.148Z,22.99
2019-03-22T12:22:36.093Z,21.73
2019-03-22T12:32:36.094Z,22.73
2019-03-22T12:42:38.329Z,22.53
2019-03-22T12:52:36.092Z,21.02
2019-03-22T13:02:42.216Z,22.38
2019-03-22T13:12:36.191Z,23.50
2019-03-22T13:22:36.169Z,23.63
2019-03-22T13:32:36.288Z,23.81
2019-03-22T13:42:36.218Z,24.15
2019-03-22T13:52:35.992Z,24.82
2019-03-22T14:02:36.179Z,24.99
2019-03-22T14:12:37.945Z,26.10
2019-03-22T14:22:36.323Z,24.67
2019-03-22T14:32:36.192Z,24.54
2019-03-22T14:42:36.209Z,25.32
2019-03-22T14:52:36.122Z,26.20
2019-03-22T15:02:36.240Z,25.87
2019-03-22T15:12:36.174Z,26.03
2019-03-22T15:22:36.191Z,25.35
2019-03-22T15:32:37.647Z,25.02
2019-03-22T15:42:36.179Z,25.17
2019-03-22T15:52:36.335Z,25.85
2019-03-22T16:12:45.432Z,25.34
2019-03-22T16:22:44.704Z,25.26
2019-03-22T16:32:44.192Z,24.56
2019-03-22T16:42:44.703Z,24.33
2019-03-22T16:52:43.512Z,21.59
2019-03-22T17:02:44.187Z,19.99
2019-03-22T17:12:43.556Z,19.46
2019-03-22T17:22:43.483Z,19.16
2019-03-22T17:32:43.610Z,18.93
2019-03-22T17:42:43.578Z,18.47
2019-03-22T17:52:43.525Z,18.06
2019-03-22T18:02:43.603Z,17.76
2019-03-22T18:12:43.595Z,17.42
2019-03-22T18:22:43.619Z,17.01
2019-03-22T18:32:43.555Z,16.55
2019-03-22T18:42:43.571Z,16.12
2019-03-22T18:52:43.507Z,15.75
2019-03-22T19:02:43.550Z,15.49
2019-03-22T19:12:43.437Z,15.04
2019-03-22T19:22:43.503Z,13.87
2019-03-22T19:32:43.582Z,13.23
2019-03-22T19:42:43.546Z,12.80
2019-03-22T19:52:43.612Z,12.60
2019-03-22T20:02:43.500Z,12.26
2019-03-22T20:12:43.573Z,12.70
2019-03-22T20:22:43.596Z,13.09
2019-03-22T20:32:43.582Z,12.66
2019-03-22T20:42:43.633Z,12.12
2019-03-22T20:52:43.609Z,11.45
2019-03-22T21:02:43.611Z,11.21
2019-03-22T21:12:43.604Z,11.68
2019-03-22T21:22:43.540Z,12.53
2019-03-22T21:32:45.405Z,12.86
2019-03-22T21:42:44.215Z,12.94
2019-03-22T21:52:43.571Z,12.80
2019-03-22T22:02:43.517Z,12.67
2019-03-22T22:12:43.581Z,12.45
2019-03-22T22:22:43.598Z,12.17
2019-03-22T22:32:43.489Z,11.94
2019-03-22T22:42:43.563Z,11.60
2019-03-22T22:52:43.519Z,11.24
2019-03-22T23:02:43.620Z,10.99
2019-03-22T23:12:43.513Z,10.21
2019-03-22T23:22:43.524Z,10.19
2019-03-22T23:32:43.604Z,9.78
2019-03-22T23:42:44.274Z,9.05
2019-03-22T23:52:43.558Z,8.61
